Time;durP1;ratioP1;P1;durP2;ratioP2;P2;SDS_P1;SDS_P2;PMS_P1;PMS_P2;Temp;Humidity;BMP_temperature;BMP_pressure;BME280_temperature;BME280_humidity;BME280_pressure;Samples;Min_cycle;Max_cycle;Signal;HPM_P1;HPM_P2
2022/10/15 00:00:38;;;;;;;;;;;;;;;;;;4983851;28;19949;-53
2022/10/15 00:03:03;;;;;;;;;;;;;;;;;;4976738;28;19970;-53
2022/10/15 00:05:29;;;;;;;;;;;;;;;;;;4986166;28;19994;-53
2022/10/15 00:07:55;;;;;;;;;;;;;;;;;;4981308;28;19969;-54
2022/10/15 00:10:21;;;;;;;;;;;;;;;;;;4979675;28;19926;-54
2022/10/15 00:12:47;;;;;;;;;;;;;;;;;;4987127;28;20005;-53
2022/10/15 00:15:13;;;;;;;;;;;;;;;;;;5010229;28;19918;-53
2022/10/15 00:17:39;;;;;;;;;;;;;;;;;;4977734;28;19921;-54
2022/10/15 00:20:04;;;;;;;;;;;;;;;;;;4978755;28;20172;-54
2022/10/15 00:22:30;;;;;;;;;;;;;;;;;;4983860;28;20302;-54
2022/10/15 00:24:56;;;;;;;;;;;;;;;;;;4984611;28;20375;-53
2022/10/15 00:27:22;;;;;;;;;;;;;;;;;;4978368;28;20369;-54
2022/10/15 00:29:48;;;;;;;;;;;;;;;;;;4982847;28;20314;-55
2022/10/15 00:32:14;;;;;;;;;;;;;;;;;;4974652;28;19914;-54
2022/10/15 00:34:39;;;;;;;;;;;;;;;;;;4977454;28;19921;-54
2022/10/15 00:37:06;;;;;;;;;;;;;;;;;;4979667;28;19940;-53
2022/10/15 00:39:31;;;;;;;;;;;;;;;;;;4976882;28;19944;-53
2022/10/15 00:41:57;;;;;;;;;;;;;;;;;;4978729;28;20279;-53
2022/10/15 00:44:23;;;;;;;;;;;;;;;;;;4981879;28;19914;-54
2022/10/15 00:46:49;;;;;;;;;;;;;;;;;;4979240;28;19925;-54
2022/10/15 00:49:15;;;;;;;;;;;;;;;;;;4983791;28;22242;-54
2022/10/15 00:51:41;;;;;;;;;;;;;;;;;;4983632;28;20283;-53
2022/10/15 00:54:07;;;;;;;;;;;;;;;;;;4983914;28;20460;-54
2022/10/15 00:56:32;;;;;;;;;;;;;;;;;;4982463;28;19925;-54
2022/10/15 00:58:58;;;;;;;;;;;;;;;;;;4984075;28;19921;-54
2022/10/15 01:01:24;;;;;;;;;;;;;;;;;;4979631;28;20025;-54
2022/10/15 01:03:50;;;;;;;;;;;;;;;;;;4976823;28;19922;-53
2022/10/15 01:06:16;;;;;;;;;;;;;;;;;;4983048;28;19969;-54
2022/10/15 01:08:42;;;;;;;;;;;;;;;;;;5013777;28;20179;-54
2022/10/15 01:11:08;;;;;;;;;;;;;;;;;;4979272;28;19927;-53
2022/10/15 01:13:34;;;;;;;;;;;;;;;;;;4979672;28;19917;-54
2022/10/15 01:16:00;;;;;;;;;;;;;;;;;;4976181;28;20016;-53
2022/10/15 01:18:25;;;;;;;;;;;;;;;;;;4986528;28;20008;-54
2022/10/15 01:20:51;;;;;;;;;;;;;;;;;;4983319;28;19939;-53
2022/10/15 01:23:19;;;;;;;;;;;;;;;;;;4979808;28;19931;-54
2022/10/15 01:25:44;;;;;;;;;;;;;;;;;;4983907;28;19922;-54
2022/10/15 01:28:10;;;;;;;;;;;;;;;;;;4976921;28;19925;-53
2022/10/15 01:30:36;;;;;;;;;;;;;;;;;;4978431;28;19922;-54
2022/10/15 01:33:02;;;;;;;;;;;;;;;;;;4984286;28;19917;-54
2022/10/15 01:35:28;;;;;;;;;;;;;;;;;;4986902;28;20270;-54
2022/10/15 01:37:54;;;;;;;;;;;;;;;;;;4981528;28;19920;-53
2022/10/15 01:40:20;;;;;;;;;;;;;;;;;;4983800;28;20562;-53
2022/10/15 01:42:46;;;;;;;;;;;;;;;;;;4972456;28;21338;-54
2022/10/15 01:45:12;;;;;;;;;;;;;;;;;;4982409;28;19917;-55
2022/10/15 01:47:38;;;;;;;;;;;;;;;;;;5020115;28;20269;-54
2022/10/15 01:50:03;;;;;;;;;;;;;;;;;;4989775;28;19924;-53
2022/10/15 01:52:29;;;;;;;;;;;;;;;;;;4983465;28;19925;-54
2022/10/15 01:54:55;;;;;;;;;;;;;;;;;;4986439;28;19926;-53
2022/10/15 01:57:21;;;;;;;;;;;;;;;;;;4982741;28;19922;-53
2022/10/15 01:59:47;;;;;;;;;;;;;;;;;;4983084;28;20012;-54
2022/10/15 02:02:13;;;;;;;;;;;;;;;;;;4981053;28;19950;-54
2022/10/15 02:04:39;;;;;;;;;;;;;;;;;;4981815;28;19921;-54
2022/10/15 02:07:05;;;;;;;;;;;;;;;;;;5012288;28;20337;-53
2022/10/15 02:09:31;;;;;;;;;;;;;;;;;;4989792;28;19932;-53
2022/10/15 02:11:56;;;;;;;;;;;;;;;;;;4983085;28;19918;-54
2022/10/15 02:14:22;;;;;;;;;;;;;;;;;;4980402;28;19970;-53
2022/10/15 02:16:48;;;;;;;;;;;;;;;;;;4985085;28;19909;-53
2022/10/15 02:19:14;;;;;;;;;;;;;;;;;;4983701;28;20511;-53
2022/10/15 02:21:40;;;;;;;;;;;;;;;;;;4985856;28;20649;-53
2022/10/15 02:24:06;;;;;;;;;;;;;;;;;;5013617;28;19925;-54
2022/10/15 02:26:32;;;;;;;;;;;;;;;;;;4983923;28;20195;-54
2022/10/15 02:28:58;;;;;;;;;;;;;;;;;;4982689;28;19913;-54
2022/10/15 02:31:24;;;;;;;;;;;;;;;;;;4981853;28;19918;-54
2022/10/15 02:33:50;;;;;;;;;;;;;;;;;;5023973;28;20305;-54
2022/10/15 02:36:16;;;;;;;;;;;;;;;;;;4981283;28;19991;-54
2022/10/15 02:38:42;;;;;;;;;;;;;;;;;;4988970;28;19917;-53
2022/10/15 02:41:08;;;;;;;;;;;;;;;;;;4984949;28;20402;-53
2022/10/15 02:43:34;;;;;;;;;;;;;;;;;;4984888;28;19922;-54
2022/10/15 02:46:00;;;;;;;;;;;;;;;;;;4982230;28;19922;-53
2022/10/15 02:48:25;;;;;;;;;;;;;;;;;;4991499;28;20355;-54
2022/10/15 02:50:51;;;;;;;;;;;;;;;;;;4989677;28;19917;-54
2022/10/15 02:53:17;;;;;;;;;;;;;;;;;;4988591;28;19996;-54
2022/10/15 02:55:44;;;;;;;;;;;;;;;;;;4988018;28;20394;-54
2022/10/15 02:58:10;;;;;;;;;;;;;;;;;;4983324;28;19964;-53
2022/10/15 03:00:36;;;;;;;;;;;;;;;;;;4986898;28;20360;-53
2022/10/15 03:03:02;;;;;;;;;;;;;;;;;;4984810;28;19960;-54
2022/10/15 03:05:28;;;;;;;;;;;;;;;;;;4978505;28;19917;-54
2022/10/15 03:07:54;;;;;;;;;;;;;;;;;;4985560;28;20386;-54
2022/10/15 03:10:19;;;;;;;;;;;;;;;;;;4984537;28;20132;-54
2022/10/15 03:12:45;;;;;;;;;;;;;;;;;;4982544;28;19926;-54
2022/10/15 03:15:11;;;;;;;;;;;;;;;;;;4977457;28;19935;-53
2022/10/15 03:17:37;;;;;;;;;;;;;;;;;;4984258;28;20286;-54
2022/10/15 03:20:03;;;;;;;;;;;;;;;;;;4989255;28;20378;-54
2022/10/15 03:22:29;;;;;;;;;;;;;;;;;;4989695;28;19929;-53
2022/10/15 03:24:55;;;;;;;;;;;;;;;;;;4985778;28;20028;-54
2022/10/15 03:27:20;;;;;;;;;;;;;;;;;;4993627;28;20057;-55
2022/10/15 03:29:46;;;;;;;;;;;;;;;;;;4987215;28;19917;-54
2022/10/15 03:32:12;;;;;;;;;;;;;;;;;;4983307;28;20020;-53
2022/10/15 03:34:38;;;;;;;;;;;;;;;;;;4982461;28;19914;-54
2022/10/15 03:37:04;;;;;;;;;;;;;;;;;;4977956;28;19964;-54
2022/10/15 03:39:30;;;;;;;;;;;;;;;;;;4982834;28;19953;-55
2022/10/15 03:41:56;;;;;;;;;;;;;;;;;;4987194;28;20804;-54
2022/10/15 03:44:22;;;;;;;;;;;;;;;;;;4981598;28;20347;-54
2022/10/15 03:46:47;;;;;;;;;;;;;;;;;;4977835;28;20003;-54
2022/10/15 03:49:13;;;;;;;;;;;;;;;;;;4983203;28;19925;-54
2022/10/15 03:51:39;;;;;;;;;;;;;;;;;;4978541;28;20486;-54
2022/10/15 03:54:05;;;;;;;;;;;;;;;;;;4977326;28;19968;-53
2022/10/15 03:56:31;;;;;;;;;;;;;;;;;;4980582;28;20306;-54
2022/10/15 03:58:57;;;;;;;;;;;;;;;;;;4987213;28;19971;-53
2022/10/15 04:01:23;;;;;;;;;;;;;;;;;;4974300;28;19961;-54
2022/10/15 04:03:48;;;;;;;;;;;;;;;;;;4983111;28;20558;-53
2022/10/15 04:06:14;;;;;;;;;;;;;;;;;;4981068;28;20259;-52
2022/10/15 04:08:40;;;;;;;;;;;;;;;;;;4978268;28;19931;-53
2022/10/15 04:11:06;;;;;;;;;;;;;;;;;;4980971;28;19965;-55
2022/10/15 04:13:32;;;;;;;;;;;;;;;;;;4986742;28;19918;-55
2022/10/15 04:15:58;;;;;;;;;;;;;;;;;;5016635;28;19925;-52
2022/10/15 04:18:24;;;;;;;;;;;;;;;;;;4982556;28;19922;-52
2022/10/15 04:20:50;;;;;;;;;;;;;;;;;;4979864;28;19961;-52
2022/10/15 04:23:15;;;;;;;;;;;;;;;;;;4978784;28;19922;-53
2022/10/15 04:25:41;;;;;;;;;;;;;;;;;;4979546;28;19917;-53
2022/10/15 04:28:07;;;;;;;;;;;;;;;;;;4983459;28;19968;-53
2022/10/15 04:30:33;;;;;;;;;;;;;;;;;;4986968;28;20407;-52
2022/10/15 04:32:59;;;;;;;;;;;;;;;;;;4979484;28;20195;-55
2022/10/15 04:35:25;;;;;;;;;;;;;;;;;;4979555;28;19922;-55
2022/10/15 04:37:51;;;;;;;;;;;;;;;;;;5015034;28;20532;-53
2022/10/15 04:40:17;;;;;;;;;;;;;;;;;;4977738;28;20396;-56
2022/10/15 04:42:43;;;;;;;;;;;;;;;;;;4986010;28;19921;-53
2022/10/15 04:45:09;;;;;;;;;;;;;;;;;;4978194;28;20298;-56
2022/10/15 04:47:35;;;;;;;;;;;;;;;;;;4989021;28;19962;-56
2022/10/15 04:50:01;;;;;;;;;;;;;;;;;;4985434;28;19910;-53
2022/10/15 04:52:26;;;;;;;;;;;;;;;;;;4983132;28;20145;-53
2022/10/15 04:54:52;;;;;;;;;;;;;;;;;;4985357;28;20286;-54
2022/10/15 04:57:18;;;;;;;;;;;;;;;;;;4983422;28;19980;-54
2022/10/15 04:59:44;;;;;;;;;;;;;;;;;;4986225;28;19929;-52
2022/10/15 05:02:10;;;;;;;;;;;;;;;;;;4981764;28;19980;-53
2022/10/15 05:04:36;;;;;;;;;;;;;;;;;;4982908;28;19917;-52
2022/10/15 05:07:02;;;;;;;;;;;;;;;;;;4978189;28;19924;-53
2022/10/15 05:09:28;;;;;;;;;;;;;;;;;;4985823;28;19918;-53
2022/10/15 05:11:54;;;;;;;;;;;;;;;;;;4981461;28;19968;-53
2022/10/15 05:14:20;;;;;;;;;;;;;;;;;;4989379;28;19914;-53
2022/10/15 05:16:46;;;;;;;;;;;;;;;;;;4979265;28;20432;-53
2022/10/15 05:19:12;;;;;;;;;;;;;;;;;;4982331;28;19990;-54
2022/10/15 05:21:38;;;;;;;;;;;;;;;;;;4975032;28;20465;-53
2022/10/15 05:24:04;;;;;;;;;;;;;;;;;;4981256;28;20298;-54
2022/10/15 05:26:31;;;;;;;;;;;;;;;;;;4978489;28;20522;-54
2022/10/15 05:28:56;;;;;;;;;;;;;;;;;;4981985;28;20259;-53
2022/10/15 05:31:22;;;;;;;;;;;;;;;;;;4982095;28;19987;-54
2022/10/15 05:33:48;;;;;;;;;;;;;;;;;;4986728;28;19918;-54
2022/10/15 05:36:16;;;;;;;;;;;;;;;;;;4982116;28;20380;-53
2022/10/15 05:38:42;;;;;;;;;;;;;;;;;;4987064;28;20608;-54
2022/10/15 05:41:07;;;;;;;;;;;;;;;;;;4985581;28;20053;-53
2022/10/15 05:43:33;;;;;;;;;;;;;;;;;;4989397;28;20259;-54
2022/10/15 05:45:59;;;;;;;;;;;;;;;;;;4976257;28;19925;-54
2022/10/15 05:48:25;;;;;;;;;;;;;;;;;;4988180;28;20331;-54
2022/10/15 05:50:51;;;;;;;;;;;;;;;;;;4979782;28;20393;-56
2022/10/15 05:53:17;;;;;;;;;;;;;;;;;;4978102;28;20040;-54
2022/10/15 05:55:43;;;;;;;;;;;;;;;;;;4988667;28;19926;-54
2022/10/15 05:58:09;;;;;;;;;;;;;;;;;;4974789;28;19988;-55
2022/10/15 06:00:35;;;;;;;;;;;;;;;;;;4974757;28;19921;-55
2022/10/15 06:03:00;;;;;;;;;;;;;;;;;;4978659;28;20028;-53
2022/10/15 06:05:26;;;;;;;;;;;;;;;;;;4980346;28;20040;-54
2022/10/15 06:07:52;;;;;;;;;;;;;;;;;;4956792;28;19967;-54
2022/10/15 06:10:18;;;;;;;;;;;;;;;;;;5000268;28;20487;-55
2022/10/15 06:12:44;;;;;;;;;;;;;;;;;;4986236;28;20327;-55
2022/10/15 06:15:10;;;;;;;;;;;;;;;;;;4980577;28;19918;-54
2022/10/15 06:17:36;;;;;;;;;;;;;;;;;;4983842;28;20019;-55
2022/10/15 06:20:02;;;;;;;;;;;;;;;;;;4984396;28;19979;-55
2022/10/15 06:22:27;;;;;;;;;;;;;;;;;;4972844;28;20310;-55
2022/10/15 06:24:53;;;;;;;;;;;;;;;;;;4982032;28;19918;-55
2022/10/15 06:27:19;;;;;;;;;;;;;;;;;;4977044;28;19933;-55
2022/10/15 06:29:45;;;;;;;;;;;;;;;;;;4979564;28;19928;-55
2022/10/15 06:32:11;;;;;;;;;;;;;;;;;;4985263;28;19969;-55
2022/10/15 06:34:37;;;;;;;;;;;;;;;;;;5016158;28;19960;-55
2022/10/15 06:37:03;;;;;;;;;;;;;;;;;;4983793;28;20270;-55
2022/10/15 06:39:28;;;;;;;;;;;;;;;;;;4970948;28;19921;-55
2022/10/15 06:41:54;;;;;;;;;;;;;;;;;;4980821;28;20013;-54
2022/10/15 06:44:20;;;;;;;;;;;;;;;;;;4972870;28;19914;-55
2022/10/15 06:46:46;;;;;;;;;;;;;;;;;;4968380;28;19925;-54
2022/10/15 06:49:12;;;;;;;;;;;;;;;;;;4980865;28;20406;-55
2022/10/15 06:51:38;;;;;;;;;;;;;;;;;;4991818;28;20311;-54
2022/10/15 06:54:04;;;;;;;;;;;;;;;;;;4979706;28;22018;-54
2022/10/15 06:56:29;;;;;;;;;;;;;;;;;;4982413;28;19953;-54
2022/10/15 06:58:55;;;;;;;;;;;;;;;;;;4980512;28;20397;-55
2022/10/15 07:01:21;;;;;;;;;;;;;;;;;;4972926;28;19945;-54
2022/10/15 07:03:47;;;;;;;;;;;;;;;;;;4955150;28;20147;-56
2022/10/15 07:06:13;;;;;;;;;;;;;;;;;;4967090;28;19931;-54
2022/10/15 07:08:39;;;;;;;;;;;;;;;;;;4980962;28;19922;-55
2022/10/15 07:11:05;;;;;;;;;;;;;;;;;;4986145;28;19913;-56
2022/10/15 07:13:30;;;;;;;;;;;;;;;;;;4978370;28;19975;-54
2022/10/15 07:15:56;;;;;;;;;;;;;;;;;;4983763;28;19918;-56
2022/10/15 07:18:22;;;;;;;;;;;;;;;;;;4970404;28;20420;-54
2022/10/15 07:20:48;;;;;;;;;;;;;;;;;;4976798;28;20425;-54
2022/10/15 07:23:14;;;;;;;;;;;;;;;;;;4976778;28;19917;-56
2022/10/15 07:25:40;;;;;;;;;;;;;;;;;;4983902;28;20512;-55
2022/10/15 07:28:06;;;;;;;;;;;;;;;;;;4988345;28;19940;-55
2022/10/15 07:30:32;;;;;;;;;;;;;;;;;;4981667;28;19929;-55
2022/10/15 07:32:57;;;;;;;;;;;;;;;;;;4981259;28;19952;-56
2022/10/15 07:35:23;;;;;;;;;;;;;;;;;;4973556;28;20341;-54
2022/10/15 07:37:49;;;;;;;;;;;;;;;;;;4978467;28;20007;-55
2022/10/15 07:40:15;;;;;;;;;;;;;;;;;;4987943;28;19948;-55
2022/10/15 07:42:41;;;;;;;;;;;;;;;;;;4981841;28;20171;-56
2022/10/15 07:45:07;;;;;;;;;;;;;;;;;;5002504;28;19975;-55
2022/10/15 07:47:33;;;;;;;;;;;;;;;;;;4964163;28;20000;-55
2022/10/15 07:49:59;;;;;;;;;;;;;;;;;;4977882;28;19918;-53
2022/10/15 07:52:25;;;;;;;;;;;;;;;;;;4978962;28;20041;-56
2022/10/15 07:54:50;;;;;;;;;;;;;;;;;;4973121;28;20379;-55
2022/10/15 07:57:16;;;;;;;;;;;;;;;;;;4976238;28;20881;-55
2022/10/15 07:59:42;;;;;;;;;;;;;;;;;;4994991;28;19917;-54
2022/10/15 08:02:08;;;;;;;;;;;;;;;;;;5006333;28;20333;-53
2022/10/15 08:04:34;;;;;;;;;;;;;;;;;;4995425;28;19925;-54
2022/10/15 08:07:00;;;;;;;;;;;;;;;;;;5005483;28;20012;-54
2022/10/15 08:09:25;;;;;;;;;;;;;;;;;;5006997;28;19967;-54
2022/10/15 08:11:51;;;;;;;;;;;;;;;;;;5002515;28;19925;-53
2022/10/15 08:14:17;;;;;;;;;;;;;;;;;;4992357;28;19940;-54
2022/10/15 08:16:43;;;;;;;;;;;;;;;;;;4983249;28;20334;-55
2022/10/15 08:19:09;;;;;;;;;;;;;;;;;;4972249;28;20459;-54
2022/10/15 08:21:35;;;;;;;;;;;;;;;;;;4980786;28;20365;-55
2022/10/15 08:24:01;;;;;;;;;;;;;;;;;;4983469;28;19933;-56
2022/10/15 08:26:27;;;;;;;;;;;;;;;;;;4978159;28;19922;-54
2022/10/15 08:28:52;;;;;;;;;;;;;;;;;;5014403;28;19929;-54
2022/10/15 08:31:18;;;;;;;;;;;;;;;;;;4977968;28;20456;-56
2022/10/15 08:33:45;;;;;;;;;;;;;;;;;;4976511;28;19930;-56
2022/10/15 08:36:11;;;;;;;;;;;;;;;;;;4958697;28;21053;-55
2022/10/15 08:38:37;;;;;;;;;;;;;;;;;;4975960;28;20048;-54
2022/10/15 08:41:02;;;;;;;;;;;;;;;;;;4980943;28;19920;-54
2022/10/15 08:43:28;;;;;;;;;;;;;;;;;;4978267;28;19925;-56
2022/10/15 08:45:54;;;;;;;;;;;;;;;;;;4969404;28;19966;-55
2022/10/15 08:48:20;;;;;;;;;;;;;;;;;;4982988;28;19921;-54
2022/10/15 08:50:46;;;;;;;;;;;;;;;;;;4973104;28;19926;-56
2022/10/15 08:53:12;;;;;;;;;;;;;;;;;;4976548;28;19914;-56
2022/10/15 08:55:38;;;;;;;;;;;;;;;;;;4986583;28;19929;-56
2022/10/15 08:58:05;;;;;;;;;;;;;;;;;;4991262;28;19921;-54
2022/10/15 09:00:31;;;;;;;;;;;;;;;;;;4990857;28;19925;-55
2022/10/15 09:02:57;;;;;;;;;;;;;;;;;;4997056;28;19918;-56
2022/10/15 09:05:22;;;;;;;;;;;;;;;;;;4986930;28;19917;-56
2022/10/15 09:07:48;;;;;;;;;;;;;;;;;;4988290;28;19921;-56
2022/10/15 09:10:14;;;;;;;;;;;;;;;;;;4988880;28;20119;-54
2022/10/15 09:12:40;;;;;;;;;;;;;;;;;;4991157;28;20041;-55
2022/10/15 09:15:06;;;;;;;;;;;;;;;;;;4986784;28;20044;-56
2022/10/15 09:17:32;;;;;;;;;;;;;;;;;;4987684;28;20294;-55
2022/10/15 09:19:58;;;;;;;;;;;;;;;;;;4985612;28;19914;-55
2022/10/15 09:22:24;;;;;;;;;;;;;;;;;;4993336;28;19980;-54
2022/10/15 09:24:50;;;;;;;;;;;;;;;;;;4992685;28;19932;-54
2022/10/15 09:27:15;;;;;;;;;;;;;;;;;;4985288;28;20318;-56
2022/10/15 09:29:41;;;;;;;;;;;;;;;;;;4990395;28;19933;-55
2022/10/15 09:32:07;;;;;;;;;;;;;;;;;;4989856;28;20069;-55
2022/10/15 09:34:33;;;;;;;;;;;;;;;;;;4986837;28;20040;-56
2022/10/15 09:36:59;;;;;;;;;;;;;;;;;;4990342;28;19921;-54
2022/10/15 09:39:25;;;;;;;;;;;;;;;;;;4986993;28;19984;-56
2022/10/15 09:41:52;;;;;;;;;;;;;;;;;;4990635;28;20787;-55
2022/10/15 09:44:18;;;;;;;;;;;;;;;;;;4977466;28;19917;-54
2022/10/15 09:46:44;;;;;;;;;;;;;;;;;;4983330;28;19929;-55
2022/10/15 09:49:10;;;;;;;;;;;;;;;;;;4976771;28;19932;-54
2022/10/15 09:51:36;;;;;;;;;;;;;;;;;;4974878;28;19928;-57
2022/10/15 09:54:01;;;;;;;;;;;;;;;;;;4972099;28;19972;-55
2022/10/15 09:56:27;;;;;;;;;;;;;;;;;;4978052;28;20743;-55
2022/10/15 09:58:53;;;;;;;;;;;;;;;;;;4975597;28;19935;-54
2022/10/15 10:01:19;;;;;;;;;;;;;;;;;;4980930;28;19976;-55
2022/10/15 10:03:45;;;;;;;;;;;;;;;;;;5028270;23;20314;-69
2022/10/15 10:06:11;;;;;;;;;;;;;;;;;;4996993;28;19964;-69
2022/10/15 10:08:37;;;;;;;;;;;;;;;;;;5003465;28;20376;-69
2022/10/15 10:11:03;;;;;;;;;;;;;;;;;;5027826;28;19921;-69
2022/10/15 10:13:29;;;;;;;;;;;;;;;;;;5023526;28;20340;-69
2022/10/15 10:15:54;;;;;;;;;;;;;;;;;;5002167;28;19968;-69
2022/10/15 10:18:20;;;;;;;;;;;;;;;;;;5011799;28;19921;-70
2022/10/15 10:20:46;;;;;;;;;;;;;;;;;;5020737;28;19971;-69
2022/10/15 10:23:12;;;;;;;;;;;;;;;;;;5021659;28;19924;-69
2022/10/15 10:25:38;;;;;;;;;;;;;;;;;;5023198;28;20358;-69
2022/10/15 10:28:04;;;;;;;;;;;;;;;;;;5006374;28;19924;-69
2022/10/15 10:30:30;;;;;;;;;;;;;;;;;;4996793;28;19921;-69
2022/10/15 10:32:56;;;;;;;;;;;;;;;;;;5003051;28;20005;-69
2022/10/15 10:35:23;;;;;;;382.67;207.17;;;;;;;;;;4993650;28;20008;-69
2022/10/15 10:37:49;;;;;;;350.37;187.07;;;;;;;;;;4999687;28;20195;-69
2022/10/15 10:40:21;;;;;;;350.03;188.13;;;;;;;;;;5023368;28;20295;-69
2022/10/15 10:42:47;;;;;;;349.13;187.83;;;;;;;;;;5015533;28;20787;-70
2022/10/15 10:45:19;;;;;;;403.60;210.23;;;;;;;;;;4990933;28;20223;-69
2022/10/15 10:47:45;;;;;;;;;;;;;;;;;;4984286;28;20658;-69
2022/10/15 10:50:28;;;;;;;372.57;192.67;;;;;;;;;;4975251;28;20291;-66
2022/10/15 10:52:54;;;;;;;684.63;391.63;;;;;;;;;;4987243;28;20325;-68
2022/10/15 10:55:23;;;;;;;525.57;298.83;;;;;;;;;;4986003;28;20240;-69
2022/10/15 10:57:52;;;;;;;634.90;362.30;;;;;;;;;;4989493;28;20231;-69
2022/10/15 11:00:20;;;;;;;437.60;238.97;;;;;;;;;;4985476;28;20232;-68
2022/10/15 11:02:46;;;;;;;611.00;356.50;;;;;;;;;;4982874;28;20701;-69
2022/10/15 11:05:13;;;;;;;456.27;251.30;;;;;;;;;;4981426;28;20267;-70
2022/10/15 11:07:51;;;;;;;599.97;345.53;;;;;;;;;;4990573;28;20254;-70
2022/10/15 11:10:25;;;;;;;530.47;290.57;;;;;;;;;;5001179;28;20244;-68
2022/10/15 11:12:51;;;;;;;447.87;237.10;;;;;;;;;;4989362;28;20211;-69
2022/10/15 11:15:26;;;;;;;414.65;227.40;;;;;;;;;;4979376;28;20647;-69
2022/10/15 11:18:07;;;;;;;564.57;322.37;;;;;;;;;;4981903;28;20554;-69
2022/10/15 11:20:49;;;;;;;504.10;272.07;;;;;;;;;;4987251;28;20211;-69
2022/10/15 11:23:33;;;;;;;657.00;376.20;;;;;;;;;;4995569;28;20280;-69
2022/10/15 11:26:05;;;;;;;481.33;261.98;;;;;;;;;;4991083;28;20208;-69
2022/10/15 11:28:50;;;;;;;674.90;380.27;;;;;;;;;;5005371;28;20237;-70
2022/10/15 11:31:35;;;;;;;504.80;281.50;;;;;;;;;;4987074;28;20688;-70
2022/10/15 11:34:20;;;;;;;404.70;214.68;;;;;;;;;;4986683;28;20224;-70
2022/10/15 11:36:59;;;;;;;537.03;301.43;;;;;;;;;;4997077;28;20228;-70
2022/10/15 11:39:33;;;;;;;426.42;230.23;;;;;;;;;;5014652;28;20228;-70
2022/10/15 11:42:02;;;;;;;610.70;349.90;;;;;;;;;;4985681;28;21070;-70
2022/10/15 11:44:38;;;;;;;430.60;237.40;;;;;;;;;;4997567;28;20208;-70
2022/10/15 11:47:04;;;;;;;544.00;313.90;;;;;;;;;;4999178;28;20293;-70
2022/10/15 11:49:41;;;;;;;471.73;263.67;;;;;;;;;;4981708;28;21144;-71
2022/10/15 11:52:21;;;;;;;445.20;244.17;;;;;;;;;;4983708;28;20209;-71
2022/10/15 11:55:00;;;;;;;528.73;304.53;;;;;;;;;;4984661;28;20216;-71
2022/10/15 11:57:30;;;;;;;581.50;337.87;;;;;;;;;;5000287;28;20708;-70
2022/10/15 12:00:00;;;;;;;470.27;270.53;;;;;;;;;;4981951;28;20712;-71
2022/10/15 12:02:33;;;;;;;560.07;326.40;;;;;;;;;;4982929;28;20213;-71
2022/10/15 12:05:09;;;;;;;455.63;253.30;;;;;;;;;;4988780;28;20661;-70
2022/10/15 12:07:43;;;;;;;500.23;285.53;;;;;;;;;;5023261;28;20696;-70
2022/10/15 12:10:12;;;;;;;498.87;282.30;;;;;;;;;;4992647;28;20217;-69
2022/10/15 12:12:47;;;;;;;447.97;256.43;;;;;;;;;;4989659;28;20219;-69
2022/10/15 12:15:20;;;;;;;544.73;316.10;;;;;;;;;;4985449;28;20216;-70
2022/10/15 12:18:06;;;;;;;558.97;318.30;;;;;;;;;;4987379;28;20298;-70
2022/10/15 12:20:32;;;;;;;436.97;241.73;;;;;;;;;;4985586;28;20223;-71
2022/10/15 12:23:00;;;;;;;529.63;306.93;;;;;;;;;;4985817;28;20376;-71
2022/10/15 12:25:35;;;;;;;530.37;283.27;;;;;;;;;;5023135;23;20672;-57
2022/10/15 12:28:01;;;;;;;441.10;244.83;;;;;;;;;;4995829;28;20211;-54
2022/10/15 12:30:28;;;;;;;349.80;196.63;;;;;;;;;;4995815;28;20271;-54
2022/10/15 12:32:54;;;;;;;537.33;303.10;;;;;;;;;;5005184;28;20219;-55
2022/10/15 12:35:20;;;;;;;631.30;346.90;;;;;;;;;;4994067;28;20208;-55
2022/10/15 12:37:47;;;;;;;501.57;275.50;;;;;;;;;;4993907;28;20215;-55
2022/10/15 12:40:22;;;;;;;620.30;336.00;;;;;;;;;;4997588;28;20216;-55
2022/10/15 12:42:57;;;;;;;440.77;237.17;;;;;;;;;;5001026;28;20231;-55
2022/10/15 12:45:24;;;;;;;473.43;263.30;;;;;;;;;;5000744;28;25822;-54
2022/10/15 12:47:53;;;;;;;479.10;266.57;;;;;;;;;;4992666;28;20319;-54
2022/10/15 12:50:20;;;;;;;459.47;249.23;;;;;;;;;;5005019;28;20204;-54
2022/10/15 12:52:51;;;;;;;632.90;351.63;;;;;;;;;;4994855;28;22960;-54
2022/10/15 12:55:23;;;;;;;518.20;284.23;;;;;;;;;;5002437;28;20223;-54
2022/10/15 12:57:56;;;;;;;540.20;283.33;;;;;;;;;;5003061;28;20244;-54
2022/10/15 13:00:25;;;;;;;520.93;279.80;;;;;;;;;;5001216;28;20244;-54
2022/10/15 13:02:52;;;;;;;543.47;284.43;;;;;;;;;;5001863;28;20228;-54
2022/10/15 13:05:29;;;;;;;486.67;263.17;;;;;;;;;;5009871;28;20300;-54
2022/10/15 13:07:56;;;;;;;379.20;202.73;;;;;;;;;;5007612;28;20183;-53
2022/10/15 13:10:46;;;;;;;540.70;286.23;;;;;;;;;;5012726;28;20358;-54
2022/10/15 13:13:14;;;;;;;615.97;321.67;;;;;;;;;;5003498;28;20754;-54
2022/10/15 13:15:40;;;;;;;517.97;277.43;;;;;;;;;;4992038;28;20729;-54
2022/10/15 13:18:12;;;;;;;588.87;306.73;;;;;;;;;;5008469;28;20767;-54
2022/10/15 13:20:40;;;;;;;476.97;255.43;;;;;;;;;;5003967;28;20223;-54
2022/10/15 13:23:07;;;;;;;536.40;282.97;;;;;;;;;;4993252;28;20324;-54
2022/10/15 13:25:33;;;;;;;469.10;250.57;;;;;;;;;;5005946;28;20774;-54
2022/10/15 13:27:59;;;;;;;514.80;272.27;;;;;;;;;;4999042;28;20259;-55
2022/10/15 13:30:25;;;;;;;663.00;363.07;;;;;;;;;;4993901;28;20400;-56
2022/10/15 13:32:52;;;;;;;512.63;276.37;;;;;;;;;;5000573;28;20201;-54
2022/10/15 13:35:28;;;;;;;570.37;303.37;;;;;;;;;;5001288;28;20283;-54
2022/10/15 13:37:55;;;;;;;496.00;271.37;;;;;;;;;;4996693;28;20207;-55
2022/10/15 13:40:31;;;;;;;615.77;350.37;;;;;;;;;;4999855;28;20220;-55
2022/10/15 13:42:59;;;;;;;534.63;280.80;;;;;;;;;;5008231;28;20269;-55
2022/10/15 13:45:25;;;;;;;448.50;252.07;;;;;;;;;;5003273;28;20220;-55
2022/10/15 13:47:52;;;;;;;573.13;319.73;;;;;;;;;;5000191;28;20215;-55
2022/10/15 13:50:19;;;;;;;678.50;360.73;;;;;;;;;;5005307;28;20698;-55
2022/10/15 13:53:03;;;;;;;454.50;247.20;;;;;;;;;;5005424;28;20636;-54
2022/10/15 13:55:38;;;;;;;680.80;388.23;;;;;;;;;;4995989;28;20710;-55
2022/10/15 13:58:17;;;;;;;385.17;216.33;;;;;;;;;;5000156;28;20218;-54
2022/10/15 14:00:48;;;;;;;546.97;303.53;;;;;;;;;;4997659;28;20251;-55
2022/10/15 14:03:23;;;;;;;536.77;296.10;;;;;;;;;;4999530;28;20657;-54
2022/10/15 14:05:50;;;;;;;523.77;281.43;;;;;;;;;;4999829;28;20306;-54
2022/10/15 14:08:18;;;;;;;532.17;277.93;;;;;;;;;;5003652;28;20184;-55
2022/10/15 14:10:44;;;;;;;674.67;352.43;;;;;;;;;;4999895;28;20293;-54
2022/10/15 14:13:10;;;;;;;463.07;247.87;;;;;;;;;;4992894;28;20266;-54
2022/10/15 14:15:45;;;;;;;655.53;348.57;;;;;;;;;;5000719;28;20498;-54
2022/10/15 14:18:17;;;;;;;598.87;315.50;;;;;;;;;;5004489;28;20310;-55
2022/10/15 14:20:44;;;;;;;531.97;273.00;;;;;;;;;;5006420;28;20332;-55
2022/10/15 14:23:17;;;;;;;326.63;171.40;;;;;;;;;;5001053;28;20208;-54
2022/10/15 14:25:43;;;;;;;603.73;325.07;;;;;;;;;;5003903;28;20259;-54
2022/10/15 14:28:22;;;;;;;655.20;353.53;;;;;;;;;;4994504;28;20221;-55
2022/10/15 14:30:48;;;;;;;578.57;311.90;;;;;;;;;;5000902;28;20224;-54
2022/10/15 14:33:30;;;;;;;579.43;304.40;;;;;;;;;;5004825;28;20208;-54
2022/10/15 14:36:04;;;;;;;483.97;263.83;;;;;;;;;;4998940;28;20282;-54
2022/10/15 14:38:30;;;;;;;545.33;285.23;;;;;;;;;;4980024;28;20227;-55
2022/10/15 14:40:58;;;;;;;543.30;290.63;;;;;;;;;;4983334;28;20275;-55
2022/10/15 14:43:28;;;;;;;513.80;269.20;;;;;;;;;;4983238;28;20257;-54
2022/10/15 14:45:56;;;;;;;572.03;304.77;;;;;;;;;;4978194;28;20256;-55
2022/10/15 14:48:24;;;;;;;681.27;359.13;;;;;;;;;;4975851;28;20236;-55
2022/10/15 14:50:50;;;;;;;470.80;244.93;;;;;;;;;;4983265;28;20709;-54
2022/10/15 14:53:18;;;;;;;632.63;341.77;;;;;;;;;;4978889;28;20680;-55
2022/10/15 14:55:49;;;;;;;549.97;281.07;;;;;;;;;;4980012;28;20300;-55
2022/10/15 14:58:23;;;;;;;496.67;266.50;;;;;;;;;;4982088;28;20291;-55
2022/10/15 15:00:55;;;;;;;356.27;190.33;;;;;;;;;;4980429;28;20236;-55
2022/10/15 15:03:25;;;;;;;618.63;323.40;;;;;;;;;;4981149;28;20216;-55
2022/10/15 15:05:55;;;;;;;643.70;336.43;;;;;;;;;;4972345;28;20224;-55
2022/10/15 15:08:22;;;;;;;530.03;296.80;;;;;;;;;;4982702;28;20185;-55
2022/10/15 15:10:48;;;;;;;592.83;303.77;;;;;;;;;;4979263;28;20212;-55
2022/10/15 15:13:23;;;;;;;429.43;231.47;;;;;;;;;;4970304;28;20303;-55
2022/10/15 15:15:49;;;;;;;544.20;294.13;;;;;;;;;;4975480;28;20542;-55
2022/10/15 15:18:15;;;;;;;505.03;269.80;;;;;;;;;;4981270;28;20205;-55
2022/10/15 15:20:43;;;;;;;503.77;255.93;;;;;;;;;;4984529;28;20347;-55
2022/10/15 15:23:18;;;;;;;637.83;351.30;;;;;;;;;;4979747;28;20205;-55
2022/10/15 15:25:44;;;;;;;599.87;316.47;;;;;;;;;;5000233;28;20232;-56
2022/10/15 15:28:13;;;;;;;603.10;306.00;;;;;;;;;;5001681;28;20208;-56
2022/10/15 15:30:41;;;;;;;555.37;294.77;;;;;;;;;;4999554;28;21845;-56
2022/10/15 15:33:11;;;;;;;528.73;277.43;;;;;;;;;;5004287;28;20220;-56
2022/10/15 15:35:54;;;;;;;435.33;224.70;;;;;;;;;;5003241;28;20517;-56
2022/10/15 15:38:22;;;;;;;428.50;219.60;;;;;;;;;;5000833;28;20188;-56
2022/10/15 15:40:48;;;;;;;669.10;373.33;;;;;;;;;;5009085;28;20216;-56
2022/10/15 15:43:16;;;;;;;805.13;460.50;;;;;;;;;;4979834;28;20754;-56